< Typhoon 202004 2020 Season Typhoon 202006 >
Typhoon 202005 (JANGMI)
General InformationDetailed Track InformationTrack Information on Google MapsForecast History on Google MapsAccess Analytics MapList of All Images || NewsDisaster Info.WeblogTrackbackTyphoon FrontTwiphoonTyphoon Now!Typhoon ImaginationJMA Disaster Info. XMLResourceGoogle EarthGE AnimationAtom FeedGeoJSON
Detalied Best Track Wind (Time Zone = UTC)
Year Month Day Hour Lat. Long. Wind (kt) Gust (kt) Direc. of Major Storm Axis Radius of Major Storm Axis (nm) Radius of Minor Storm Axis (nm) Direc. of Major Gale Axis Radius of Major Gale Axis (nm) Radius of Minor Gale Axis (nm) Image
2020 8 7 18 16.4 126.3 30 45 - - - - - - Image
2020 8 7 21 16.9 126.9 30 45 - - - - - - Image
2020 8 8 00 17.0 127.0 30 45 - - - - - - Image
2020 8 8 03 17.2 127.0 30 45 - - - - - - Image
2020 8 8 06 17.8 126.7 30 45 - - - - - - Image
2020 8 8 09 18.7 126.3 30 45 - - - - - - Image
2020 8 8 12 19.4 126.0 30 45 - - - - - - Image
2020 8 8 15 19.8 126.0 30 45 - - - - - - Image
2020 8 8 18 21.0 126.1 35 50 - - - SE 250 120 Image
2020 8 8 21 21.9 126.4 35 50 - - - SE 250 120 Image
2020 8 9 00 23.0 126.5 40 60 - - - SE 250 120 Image
2020 8 9 03 23.9 126.5 40 60 - - - SE 250 120 Image
2020 8 9 06 25.0 126.4 40 60 - - - SE 250 120 Image
2020 8 9 09 26.0 126.3 45 65 - - - SE 250 120 Image
2020 8 9 12 27.3 126.3 45 65 - - - SE 250 120 Image
2020 8 9 15 28.9 126.0 45 65 - - - SE 280 120 Image
2020 8 9 18 29.4 126.5 45 65 - - - SE 280 120 Image
2020 8 9 21 30.8 127.3 45 65 - - - SE 280 120 Image
2020 8 10 00 32.0 127.7 45 65 - - - SE 280 120 Image
2020 8 10 03 33.4 128.0 45 65 - - - SE 280 120 Image
2020 8 10 06 34.7 128.5 40 60 - - - E 280 90 Image
2020 8 10 09 35.9 129.2 40 60 - - - E 280 90 Image
2020 8 10 12 37.0 130.1 40 60 - - - E 280 90 Image
2020 8 10 15 38.4 130.8 40 60 - - - SE 180 90 Image
2020 8 10 18 39.9 132.2 40 60 - - - SE 180 90 Image
2020 8 10 21 41.1 133.8 40 60 - - - SE 180 90 Image
2020 8 11 00 43.0 136.0 40 0 - - - SE 300 200 Image
Japan Meteorological Agency Best Track Data | Correction Date : 2020-08-11
< Typhoon 202004 2020 Season Typhoon 202006 >

Help